»·PEaware :: N6182G KSBA-KBUR

N6182G :: KSBA-KBUR

FLIGHT INFORMATION

Flight Status: Arrived
Operator: Privately registered:
United States
More flights under this callsign
Pilot: Paul A. (20189)
Aircraft: CESSNA 182 SKYLANE
(C182)
More flights by this aircraft type
Origin: KSBA Santa Barbara Mun
United States
Destination: KBUR Bob Hope-Burbank
United States
More flights between these airports :: More routes between these airports
Route:
File this flight plan on PilotEdge
Remarks: CAT8
Altitude:
(Current/Filed)
7,500ft
Speed:
(Current/Filed)
120kts
Departed: 06-Sep-18 10:29 AM
Arrived: 06-Sep-18 11:10 AM
Distance/Time
Traveled:
75nm/0:40
Distance/Time
To Go:
Arrived

Flight Plot

Page will automatically refresh every two minutes.


Map Options




Map Legend


Flown Route
Filed Route
Departure Airport
Arrival Airport
Navaid (VOR, NDB)
Fix

Horizontal Profiles

Position Reports

Time Latitude Longitude Heading Altitude Ground
Speed
06-Sep-18 10:19 34.432391 -119.837290 88 13ft 0kts
06-Sep-18 10:20 34.432391 -119.837290 88 13ft 0kts
06-Sep-18 10:21 34.432391 -119.837289 88 13ft 0kts
06-Sep-18 10:22 34.432391 -119.837283 88 13ft 0kts
06-Sep-18 10:23 34.432391 -119.837277 88 13ft 0kts
06-Sep-18 10:24 34.432391 -119.837270 88 13ft 0kts
06-Sep-18 10:25 34.432391 -119.837263 88 13ft 0kts
06-Sep-18 10:26 34.432370 -119.837207 136 13ft 0kts
06-Sep-18 10:27 34.432369 -119.837205 136 13ft 0kts
06-Sep-18 10:28 34.430855 -119.839258 246 13ft 6kts
06-Sep-18 10:29 34.430764 -119.839581 252 13ft 0kts
06-Sep-18 10:30 34.430748 -119.839639 251 13ft 7kts
06-Sep-18 10:31 34.420122 -119.836842 162 406ft 73kts
06-Sep-18 10:32 34.394326 -119.828595 165 1242ft 120kts
06-Sep-18 10:33 34.359410 -119.817673 165 1483ft 125kts
06-Sep-18 10:34 34.326898 -119.807262 165 1498ft 119kts
06-Sep-18 10:35 34.294501 -119.796871 165 1501ft 120kts
06-Sep-18 10:36 34.263612 -119.783272 122 1498ft 120kts
06-Sep-18 10:37 34.257878 -119.744430 98 2523ft 120kts
06-Sep-18 10:38 34.253006 -119.704136 98 3530ft 121kts
06-Sep-18 10:39 34.261726 -119.668170 43 4516ft 118kts
06-Sep-18 10:40 34.285260 -119.641253 43 5502ft 115kts
06-Sep-18 10:41 34.299651 -119.609231 82 6489ft 110kts
06-Sep-18 10:42 34.303255 -119.573255 83 7463ft 105kts
06-Sep-18 10:43 34.307438 -119.529344 83 7500ft 145kts
06-Sep-18 10:44 34.312119 -119.481839 83 7500ft 145kts
06-Sep-18 10:45 34.316950 -119.433211 83 7500ft 145kts
06-Sep-18 10:46 34.321778 -119.384666 83 7500ft 145kts
06-Sep-18 10:47 34.326603 -119.336124 83 7500ft 145kts
06-Sep-18 10:48 34.331381 -119.288091 83 7500ft 145kts
06-Sep-18 10:49 34.336209 -119.239545 83 7500ft 145kts
06-Sep-18 10:50 34.341044 -119.190910 83 7499ft 145kts
06-Sep-18 10:51 34.345881 -119.142252 83 7500ft 145kts
06-Sep-18 10:52 34.350722 -119.093555 83 7500ft 145kts
06-Sep-18 10:53 34.355571 -119.044784 83 7500ft 145kts
06-Sep-18 10:54 34.360410 -118.996094 83 7500ft 145kts
06-Sep-18 10:55 34.365245 -118.947457 83 7500ft 145kts
06-Sep-18 10:56 34.370097 -118.898625 83 7500ft 145kts
06-Sep-18 10:57 34.369474 -118.850554 110 7504ft 145kts
06-Sep-18 10:58 34.355749 -118.806017 118 6386ft 114kts
06-Sep-18 10:59 34.336165 -118.773423 138 5338ft 125kts
06-Sep-18 11:00 34.310114 -118.744555 126 4240ft 128kts
06-Sep-18 11:01 34.289860 -118.710862 126 3494ft 105kts
06-Sep-18 11:02 34.275560 -118.686990 125 3526ft 91kts
06-Sep-18 11:03 34.255886 -118.654822 126 3280ft 138kts
06-Sep-18 11:04 34.232827 -118.616770 126 2506ft 133kts
06-Sep-18 11:05 34.224069 -118.582852 96 2988ft 102kts
06-Sep-18 11:06 34.220372 -118.543113 96 3004ft 123kts
06-Sep-18 11:07 34.205955 -118.506871 111 2996ft 124kts
06-Sep-18 11:08 34.199783 -118.473183 91 2903ft 101kts
06-Sep-18 11:09 34.199502 -118.436897 91 2268ft 94kts
06-Sep-18 11:10 34.198607 -118.405517 89 1423ft 86kts
06-Sep-18 11:11 34.198164 -118.380242 90 935ft 72kts
06-Sep-18 11:12 34.197804 -118.360911 92 724ft 17kts
06-Sep-18 11:13 34.197245 -118.360303 176 724ft 8kts
06-Sep-18 11:14 34.195611 -118.360502 128 724ft 0kts
06-Sep-18 11:15 34.195610 -118.360500 128 724ft 0kts
06-Sep-18 11:16 34.195610 -118.360499 128 724ft 0kts
06-Sep-18 11:17 34.195609 -118.360498 128 724ft 0kts
06-Sep-18 11:18 34.195608 -118.360497 128 724ft 0kts
06-Sep-18 11:19 34.195607 -118.360495 128 724ft 0kts

Navigation Log

Ident Type
1. KSBA Airport
2. KBUR Airport